createdAt,value
2019-03-28T00:01:21.386Z,10.20
2019-03-28T00:03:56.964Z,10.18
2019-03-28T00:06:39.785Z,10.72
2019-03-28T00:09:15.999Z,10.50
2019-03-28T00:11:58.947Z,10.80
2019-03-28T00:14:35.026Z,10.75
2019-03-28T00:17:18.009Z,10.80
2019-03-28T00:19:54.215Z,10.90
2019-03-28T00:22:38.465Z,11.28
2019-03-28T00:25:19.256Z,10.93
2019-03-28T00:28:01.724Z,10.82
2019-03-28T00:30:38.266Z,11.68
2019-03-28T00:33:21.047Z,11.65
2019-03-28T00:36:03.926Z,11.60
2019-03-28T00:38:46.489Z,12.60
2019-03-28T00:41:22.725Z,13.25
2019-03-28T00:44:05.651Z,13.18
2019-03-28T00:46:41.779Z,13.03
2019-03-28T00:49:38.090Z,14.25
2019-03-28T00:52:20.751Z,13.40
2019-03-28T00:54:56.873Z,12.13
2019-03-28T00:57:39.909Z,12.78
2019-03-28T01:00:17.073Z,13.13
2019-03-28T01:03:07.245Z,14.20
2019-03-28T01:05:50.334Z,14.15
2019-03-28T01:08:40.049Z,13.85
2019-03-28T01:13:49.378Z,14.35
2019-03-28T01:16:39.499Z,13.83
2019-03-28T01:19:08.211Z,14.87
2019-03-28T01:21:50.618Z,15.18
2019-03-28T01:24:32.923Z,15.28
2019-03-28T01:27:08.870Z,14.53
2019-03-28T01:29:51.427Z,15.93
2019-03-28T01:32:27.745Z,14.80
2019-03-28T01:35:11.640Z,15.40
2019-03-28T01:37:54.541Z,15.15
2019-03-28T01:40:43.681Z,16.80
2019-03-28T01:43:27.194Z,16.37
2019-03-28T01:46:03.061Z,16.52
2019-03-28T01:48:52.458Z,16.12
2019-03-28T01:51:34.699Z,16.50
2019-03-28T01:54:10.508Z,16.62
2019-03-28T01:56:52.577Z,16.73
2019-03-28T01:59:34.878Z,16.55
2019-03-28T02:02:16.771Z,17.42
2019-03-28T02:04:59.080Z,17.87
2019-03-28T02:07:41.506Z,17.92
2019-03-28T02:10:24.409Z,19.27
2019-03-28T02:13:06.953Z,17.67
2019-03-28T02:15:42.568Z,18.60
2019-03-28T02:18:25.892Z,19.02
2019-03-28T02:21:09.672Z,17.48
2019-03-28T02:23:45.543Z,18.92
2019-03-28T02:26:28.273Z,17.98
2019-03-28T02:29:17.903Z,18.52
2019-03-28T02:32:00.196Z,17.05
2019-03-28T02:34:35.981Z,18.77
2019-03-28T02:37:18.886Z,18.48
2019-03-28T02:39:54.921Z,18.55
2019-03-28T02:42:38.115Z,17.92
2019-03-28T02:45:15.374Z,18.15
2019-03-28T02:47:57.254Z,18.00
2019-03-28T02:50:40.445Z,18.35
2019-03-28T02:53:22.931Z,17.27
2019-03-28T02:55:59.000Z,18.25
2019-03-28T02:58:41.610Z,17.82
2019-03-28T03:01:18.084Z,17.20
2019-03-28T03:04:00.655Z,16.55
2019-03-28T03:06:43.302Z,17.02
2019-03-28T03:09:11.122Z,16.55
2019-03-28T03:11:54.262Z,17.65
2019-03-28T03:14:37.518Z,18.23
2019-03-28T03:17:20.099Z,16.77
2019-03-28T03:22:30.416Z,16.52
2019-03-28T03:25:09.466Z,15.03
2019-03-28T03:27:58.725Z,16.50
2019-03-28T03:30:36.592Z,16.10
2019-03-28T03:33:13.037Z,15.58
2019-03-28T03:35:54.896Z,14.07
2019-03-28T03:38:31.215Z,13.18
2019-03-28T03:43:42.302Z,12.90
2019-03-28T03:46:25.372Z,12.50
2019-03-28T03:48:53.190Z,12.55
2019-03-28T03:51:35.782Z,11.97
2019-03-28T03:54:11.551Z,12.18
2019-03-28T03:56:53.953Z,12.07
2019-03-28T03:59:30.307Z,11.25
2019-03-28T04:04:39.636Z,11.18
2019-03-28T04:07:15.163Z,10.93
2019-03-28T04:09:50.057Z,9.98
2019-03-28T04:12:25.644Z,11.68
2019-03-28T04:15:08.416Z,12.07
2019-03-28T04:17:44.488Z,10.03
2019-03-28T04:20:26.983Z,9.83
2019-03-28T04:23:09.941Z,11.00
2019-03-28T04:25:52.267Z,12.60
2019-03-28T04:28:32.185Z,12.50
2019-03-28T04:33:38.577Z,12.15
2019-03-28T04:36:14.774Z,11.73
2019-03-28T04:38:41.772Z,11.30
2019-03-28T04:41:31.362Z,11.75
2019-03-28T04:43:59.175Z,12.13
2019-03-28T04:49:08.859Z,12.50
2019-03-28T04:51:45.213Z,13.30
2019-03-28T04:54:28.021Z,13.35
2019-03-28T04:57:04.451Z,12.40
2019-03-28T04:59:47.817Z,12.23
2019-03-28T05:02:24.257Z,12.82
2019-03-28T05:05:06.644Z,12.82
2019-03-28T05:07:42.729Z,13.40
2019-03-28T05:10:25.347Z,13.05
2019-03-28T05:13:08.404Z,12.98
2019-03-28T05:15:51.071Z,12.73
2019-03-28T05:18:19.744Z,13.22
2019-03-28T05:23:30.151Z,12.10
2019-03-28T05:26:05.132Z,11.60
2019-03-28T05:28:33.795Z,12.53
2019-03-28T05:31:16.737Z,12.50
2019-03-28T05:33:58.677Z,11.60
2019-03-28T05:36:35.083Z,11.65
2019-03-28T05:44:13.753Z,13.28
2019-03-28T05:46:50.152Z,13.28
2019-03-28T05:49:32.645Z,13.08
2019-03-28T05:52:11.601Z,12.65
2019-03-28T05:54:52.838Z,11.28
2019-03-28T05:57:28.583Z,11.55
2019-03-28T06:00:11.506Z,13.28
2019-03-28T06:02:48.119Z,12.65
2019-03-28T06:05:31.032Z,12.78
2019-03-28T06:08:12.985Z,9.63
2019-03-28T06:13:23.309Z,11.03
2019-03-28T06:21:03.214Z,11.60
2019-03-28T06:23:46.144Z,10.82
2019-03-28T06:26:28.879Z,10.88
2019-03-28T06:29:08.390Z,10.73
2019-03-28T06:31:55.524Z,10.80
2019-03-28T06:34:27.668Z,11.22
2019-03-28T06:37:10.163Z,10.40
2019-03-28T06:39:46.615Z,10.85
2019-03-28T06:42:29.114Z,11.43
2019-03-28T06:45:11.832Z,10.75
2019-03-28T06:47:53.709Z,11.22
2019-03-28T06:50:22.370Z,10.65
2019-03-28T06:53:04.926Z,11.73
2019-03-28T06:55:46.990Z,11.63
2019-03-28T06:58:22.783Z,11.03
2019-03-28T07:01:04.964Z,11.35
2019-03-28T07:03:48.054Z,12.00
2019-03-28T07:06:30.746Z,12.15
2019-03-28T07:09:12.951Z,13.98
2019-03-28T07:11:40.776Z,13.18
2019-03-28T07:14:22.128Z,13.68
2019-03-28T07:16:58.518Z,15.65
2019-03-28T07:22:08.017Z,13.98
2019-03-28T07:24:51.106Z,14.25
2019-03-28T07:27:27.123Z,14.63
2019-03-28T07:30:09.960Z,14.18
2019-03-28T07:32:45.870Z,12.93
2019-03-28T07:35:28.717Z,13.80
2019-03-28T07:38:04.634Z,13.30
2019-03-28T07:40:47.153Z,13.72
2019-03-28T07:43:25.204Z,13.85
2019-03-28T07:46:07.165Z,14.73
2019-03-28T07:48:42.958Z,16.37
2019-03-28T07:51:26.311Z,14.23
2019-03-28T07:54:01.905Z,14.65
2019-03-28T07:56:44.350Z,15.30
2019-03-28T07:59:26.973Z,14.28
2019-03-28T08:02:03.179Z,13.50
2019-03-28T08:04:45.628Z,13.22
2019-03-28T08:07:21.788Z,14.00
2019-03-28T08:10:04.396Z,14.35
2019-03-28T08:12:40.314Z,13.72
2019-03-28T08:15:16.830Z,11.53
2019-03-28T08:18:00.110Z,10.75
2019-03-28T08:20:42.741Z,13.10
2019-03-28T08:23:25.147Z,11.43
2019-03-28T08:26:01.636Z,11.20
2019-03-28T08:28:44.833Z,15.30
2019-03-28T08:31:27.433Z,19.30
2019-03-28T08:34:09.735Z,13.65
2019-03-28T08:36:46.151Z,11.25
2019-03-28T08:39:29.320Z,11.10
2019-03-28T08:42:05.830Z,12.05
2019-03-28T08:44:48.660Z,9.73
2019-03-28T08:47:24.415Z,9.37
2019-03-28T08:50:06.625Z,9.20
2019-03-28T08:52:42.805Z,9.75
2019-03-28T08:55:25.215Z,11.33
2019-03-28T08:58:08.185Z,11.20
2019-03-28T09:03:09.737Z,11.57
2019-03-28T09:05:52.288Z,13.00
2019-03-28T09:08:19.317Z,11.18
2019-03-28T09:10:53.358Z,11.53
2019-03-28T09:13:42.578Z,13.43
2019-03-28T09:16:24.730Z,11.88
2019-03-28T09:19:00.611Z,12.35
2019-03-28T09:21:43.518Z,12.70
2019-03-28T09:24:19.457Z,13.30
2019-03-28T09:27:01.128Z,12.73
2019-03-28T09:29:43.392Z,11.93
2019-03-28T09:32:19.336Z,12.33
2019-03-28T09:35:02.018Z,10.48
2019-03-28T09:37:37.652Z,11.95
2019-03-28T09:40:14.500Z,10.98
2019-03-28T09:42:50.465Z,11.57
2019-03-28T09:45:32.955Z,10.68
2019-03-28T09:48:11.672Z,11.40
2019-03-28T09:50:53.262Z,10.85
2019-03-28T09:53:29.280Z,10.48
2019-03-28T09:56:11.860Z,10.88
2019-03-28T09:58:47.401Z,10.32
2019-03-28T10:01:30.303Z,10.48
2019-03-28T10:03:59.034Z,10.10
2019-03-28T10:06:41.646Z,10.38
2019-03-28T10:09:24.746Z,10.38
2019-03-28T10:11:53.548Z,10.53
2019-03-28T10:14:36.290Z,12.43
2019-03-28T10:17:18.803Z,10.18
2019-03-28T10:19:54.931Z,9.98
2019-03-28T10:22:37.299Z,9.55
2019-03-28T10:25:22.840Z,10.10
2019-03-28T10:28:05.992Z,10.08
2019-03-28T10:30:50.763Z,11.35
2019-03-28T10:33:32.941Z,10.05
2019-03-28T10:36:15.050Z,10.68
2019-03-28T10:38:57.569Z,9.18
2019-03-28T10:41:46.299Z,9.30
2019-03-28T10:44:22.373Z,8.13
2019-03-28T10:47:05.193Z,8.70
2019-03-28T10:49:47.812Z,9.70
2019-03-28T10:52:29.832Z,8.63
2019-03-28T10:54:57.673Z,10.08
2019-03-28T11:00:08.151Z,8.18
2019-03-28T11:02:44.157Z,8.55
2019-03-28T11:05:34.114Z,8.98
2019-03-28T11:10:44.425Z,9.10
2019-03-28T11:13:19.333Z,8.13
2019-03-28T11:18:29.859Z,7.72
2019-03-28T11:21:19.594Z,7.55
2019-03-28T11:24:01.941Z,6.92
2019-03-28T11:26:37.754Z,7.15
2019-03-28T11:29:20.796Z,7.35
2019-03-28T11:31:56.818Z,8.83
2019-03-28T11:34:39.553Z,7.60
2019-03-28T11:37:26.026Z,9.03
2019-03-28T11:40:00.307Z,8.05
2019-03-28T11:42:36.652Z,6.50
2019-03-28T11:45:20.282Z,5.90
2019-03-28T11:47:56.696Z,6.10
2019-03-28T11:50:39.697Z,6.85
2019-03-28T11:53:15.582Z,6.63
2019-03-28T11:55:58.246Z,6.40
2019-03-28T11:58:34.697Z,6.87
2019-03-28T12:01:16.786Z,6.67
2019-03-28T12:03:53.272Z,6.78
2019-03-28T12:06:35.926Z,6.35
2019-03-28T12:09:20.969Z,5.97
2019-03-28T12:12:02.942Z,6.50
2019-03-28T12:14:38.850Z,6.65
2019-03-28T12:17:22.073Z,7.62
2019-03-28T12:19:57.920Z,6.60
2019-03-28T12:22:40.954Z,6.17
2019-03-28T12:25:23.583Z,6.45
2019-03-28T12:28:00.534Z,6.10
2019-03-28T12:30:36.808Z,4.22
2019-03-28T12:36:40.581Z,4.22
2019-03-28T12:39:23.019Z,3.47
2019-03-28T12:42:05.211Z,3.98
2019-03-28T12:47:09.754Z,4.70
2019-03-28T12:49:45.425Z,5.00
2019-03-28T12:52:29.991Z,4.97
2019-03-28T12:55:15.111Z,4.28
2019-03-28T12:57:57.793Z,4.42
2019-03-28T13:00:44.590Z,4.90
2019-03-28T13:03:21.165Z,4.55
2019-03-28T13:06:03.687Z,4.35
2019-03-28T13:08:39.712Z,4.17
2019-03-28T13:11:22.087Z,3.92
2019-03-28T13:13:58.013Z,4.17
2019-03-28T13:16:41.138Z,4.40
2019-03-28T13:19:17.680Z,4.90
2019-03-28T13:22:00.216Z,4.53
2019-03-28T13:24:42.263Z,3.62
2019-03-28T13:27:18.415Z,4.30
2019-03-28T13:30:00.655Z,4.85
2019-03-28T13:32:41.106Z,5.03
2019-03-28T13:35:15.935Z,4.42
2019-03-28T13:37:44.680Z,3.67
2019-03-28T13:42:55.409Z,4.67
2019-03-28T13:45:37.453Z,3.92
2019-03-28T13:48:14.021Z,4.10
2019-03-28T13:50:55.815Z,4.65
2019-03-28T13:53:39.769Z,5.67
2019-03-28T14:01:16.953Z,4.00
2019-03-28T14:03:59.187Z,3.87
2019-03-28T14:06:34.728Z,3.20
2019-03-28T14:09:19.670Z,2.58
2019-03-28T14:11:55.437Z,2.70
2019-03-28T14:14:40.018Z,3.22
2019-03-28T14:19:49.958Z,2.85
2019-03-28T14:22:32.968Z,2.42
2019-03-28T14:25:22.101Z,2.10
2019-03-28T14:28:04.921Z,2.30
2019-03-28T14:30:41.299Z,2.65
2019-03-28T14:33:26.993Z,2.70
2019-03-28T14:36:14.903Z,2.60
2019-03-28T14:43:51.262Z,2.62
2019-03-28T14:46:27.677Z,2.30
2019-03-28T14:49:10.705Z,2.05
2019-03-28T14:51:54.336Z,4.15
2019-03-28T14:54:36.948Z,2.37
2019-03-28T14:59:48.657Z,2.45
2019-03-28T15:02:30.780Z,2.45
2019-03-28T15:05:13.925Z,2.00
2019-03-28T15:07:56.105Z,2.20
2019-03-28T15:10:32.035Z,2.15
2019-03-28T15:13:14.564Z,2.27
2019-03-28T15:15:57.308Z,2.20
2019-03-28T15:18:33.030Z,2.58
2019-03-28T15:21:15.472Z,2.60
2019-03-28T15:23:43.295Z,2.50
2019-03-28T15:26:25.778Z,2.37
2019-03-28T15:29:08.937Z,2.35
2019-03-28T15:31:44.630Z,3.00
2019-03-28T15:34:27.009Z,2.83
2019-03-28T15:37:09.782Z,3.05
2019-03-28T15:42:19.890Z,2.55
2019-03-28T15:47:30.977Z,2.90
2019-03-28T15:50:13.829Z,3.35
2019-03-28T15:52:41.661Z,3.70
2019-03-28T15:55:24.219Z,4.55
2019-03-28T15:58:00.244Z,5.05
2019-03-28T16:03:10.646Z,8.03
2019-03-28T16:05:57.669Z,8.25
2019-03-28T16:08:31.405Z,7.50
2019-03-28T16:11:07.746Z,7.78
2019-03-28T16:13:50.129Z,7.72
2019-03-28T16:16:32.810Z,6.85
2019-03-28T16:19:08.571Z,7.80
2019-03-28T16:21:51.225Z,5.40
2019-03-28T16:24:27.316Z,6.47
2019-03-28T16:27:10.376Z,8.15
2019-03-28T16:29:46.042Z,8.55
2019-03-28T16:32:29.042Z,9.15
2019-03-28T16:35:07.244Z,13.40
2019-03-28T16:37:51.100Z,15.88
2019-03-28T16:40:27.295Z,12.50
2019-03-28T16:48:04.887Z,7.08
2019-03-28T16:50:48.400Z,11.73
2019-03-28T16:53:24.821Z,9.80
2019-03-28T16:58:36.196Z,9.65
2019-03-28T17:01:18.602Z,11.15
2019-03-28T17:03:46.411Z,13.05
2019-03-28T17:06:29.973Z,15.25
2019-03-28T17:09:07.334Z,16.02
2019-03-28T17:11:50.050Z,13.75
2019-03-28T17:14:26.651Z,13.05
2019-03-28T17:17:09.009Z,9.30
2019-03-28T17:19:45.432Z,8.68
2019-03-28T17:22:28.411Z,8.93
2019-03-28T17:25:04.875Z,8.85
2019-03-28T17:27:32.717Z,10.75
2019-03-28T17:30:15.811Z,11.97
2019-03-28T17:32:51.946Z,82.82
2019-03-28T17:35:34.823Z,104.40
2019-03-28T17:38:17.653Z,187.40
2019-03-28T17:40:53.221Z,352.63
2019-03-28T17:43:35.699Z,253.73
2019-03-28T17:46:18.345Z,133.00
2019-03-28T17:48:47.347Z,91.37
2019-03-28T17:51:30.105Z,88.12
2019-03-28T17:54:19.057Z,52.08
2019-03-28T17:57:01.962Z,10.30
2019-03-28T17:59:37.460Z,8.27
2019-03-28T18:02:20.323Z,7.47
2019-03-28T18:05:08.585Z,25.60
2019-03-28T18:07:41.742Z,48.42
2019-03-28T18:10:18.046Z,34.18
2019-03-28T18:13:01.580Z,30.72
2019-03-28T18:15:38.326Z,17.30
2019-03-28T18:18:14.904Z,10.70
2019-03-28T18:20:42.743Z,10.88
2019-03-28T18:23:10.579Z,11.28
2019-03-28T18:25:54.072Z,8.75
2019-03-28T18:28:37.097Z,10.23
2019-03-28T18:31:12.707Z,9.78
2019-03-28T18:33:56.073Z,8.85
2019-03-28T18:36:32.187Z,9.08
2019-03-28T18:39:14.820Z,11.03
2019-03-28T18:41:57.660Z,12.88
2019-03-28T18:49:38.055Z,15.55
2019-03-28T18:52:19.967Z,12.88
2019-03-28T18:54:56.369Z,13.60
2019-03-28T18:57:39.824Z,14.00
2019-03-28T19:00:23.490Z,13.20
2019-03-28T19:05:33.772Z,15.23
2019-03-28T19:08:16.976Z,16.65
2019-03-28T19:10:59.053Z,16.17
2019-03-28T19:13:34.593Z,16.12
2019-03-28T19:16:17.659Z,17.20
2019-03-28T19:19:00.143Z,19.40
2019-03-28T19:21:43.518Z,19.90
2019-03-28T19:24:19.597Z,22.30
2019-03-28T19:27:03.009Z,21.33
2019-03-28T19:32:13.306Z,23.70
2019-03-28T19:35:03.397Z,23.75
2019-03-28T19:40:17.192Z,22.42
2019-03-28T19:42:59.607Z,19.90
2019-03-28T19:45:27.438Z,20.82
2019-03-28T19:47:55.281Z,20.60
2019-03-28T19:50:37.224Z,26.77
2019-03-28T19:53:13.465Z,25.72
2019-03-28T19:55:56.068Z,49.67
2019-03-28T19:58:35.135Z,28.73
2019-03-28T20:01:17.133Z,21.17
2019-03-28T20:03:55.069Z,19.37
2019-03-28T20:06:37.851Z,23.40
2019-03-28T20:14:17.863Z,38.10
2019-03-28T20:17:06.482Z,36.15
2019-03-28T20:19:42.424Z,20.40
2019-03-28T20:27:27.408Z,21.52
2019-03-28T20:30:09.239Z,21.90
2019-03-28T20:32:45.042Z,23.77
2019-03-28T20:35:27.121Z,19.45
2019-03-28T20:38:03.863Z,19.85
2019-03-28T20:40:46.689Z,21.15
2019-03-28T20:43:23.295Z,21.33
2019-03-28T20:46:12.876Z,20.10
2019-03-28T20:53:51.850Z,17.98
2019-03-28T20:56:28.156Z,19.95
2019-03-28T20:59:10.615Z,20.90
2019-03-28T21:01:47.013Z,19.65
2019-03-28T21:04:31.521Z,17.27
2019-03-28T21:07:07.284Z,17.40
2019-03-28T21:09:50.064Z,18.05
2019-03-28T21:12:26.075Z,15.87
2019-03-28T21:15:08.775Z,20.12
2019-03-28T21:17:44.706Z,15.40
2019-03-28T21:20:27.907Z,14.25
2019-03-28T21:23:05.331Z,17.52
2019-03-28T21:25:48.365Z,15.65
2019-03-28T21:28:47.132Z,14.00
2019-03-28T21:31:22.223Z,14.85
2019-03-28T21:33:54.567Z,16.23
2019-03-28T21:36:34.944Z,16.32
2019-03-28T21:39:09.677Z,16.57
2019-03-28T21:41:38.416Z,17.27
2019-03-28T21:44:22.879Z,16.77
2019-03-28T21:47:05.731Z,17.45
2019-03-28T21:49:41.798Z,16.65
2019-03-28T21:52:24.244Z,15.18
2019-03-28T21:55:00.404Z,13.98
2019-03-28T21:57:42.844Z,14.33
2019-03-28T22:00:19.625Z,13.30
2019-03-28T22:03:03.103Z,13.38
2019-03-28T22:05:39.222Z,11.68
2019-03-28T22:08:21.856Z,11.60
2019-03-28T22:10:58.214Z,11.05
2019-03-28T22:13:40.726Z,10.65
2019-03-28T22:16:17.107Z,10.82
2019-03-28T22:18:59.899Z,9.50
2019-03-28T22:21:36.228Z,7.53
2019-03-28T22:24:18.249Z,9.90
2019-03-28T22:27:01.289Z,8.68
2019-03-28T22:29:44.711Z,7.90
2019-03-28T22:32:34.407Z,7.03
2019-03-28T22:35:17.142Z,6.10
2019-03-28T22:37:45.811Z,6.00
2019-03-28T22:40:28.547Z,6.28
2019-03-28T22:48:11.212Z,4.87
2019-03-28T22:50:45.645Z,4.53
2019-03-28T22:58:21.401Z,4.70
2019-03-28T23:01:00.112Z,3.52
2019-03-28T23:03:43.095Z,3.33
2019-03-28T23:06:26.194Z,3.42
2019-03-28T23:09:08.085Z,3.45
2019-03-28T23:14:18.961Z,3.92
2019-03-28T23:17:08.668Z,4.12
2019-03-28T23:19:44.430Z,4.10
2019-03-28T23:27:22.745Z,3.27
2019-03-28T23:30:04.539Z,3.53
2019-03-28T23:32:40.399Z,3.27
2019-03-28T23:35:22.233Z,3.55
2019-03-28T23:38:04.934Z,3.30
2019-03-28T23:40:47.265Z,2.98
2019-03-28T23:43:23.300Z,2.80
2019-03-28T23:46:05.637Z,3.50
2019-03-28T23:48:49.027Z,3.45
2019-03-28T23:53:58.408Z,3.70
2019-03-28T23:56:40.760Z,3.30
2019-03-28T23:59:22.318Z,4.17
